sensor_id;sensor_type;location;lat;lon;timestamp;P1;durP1;ratioP1;P2;durP2;ratioP2
54953;SDS011;40855;51.072;5.402;2022-11-15T00:00:08;36.30;;;17.85;;
54953;SDS011;40855;51.072;5.402;2022-11-15T00:02:35;30.98;;;16.85;;
54953;SDS011;40855;51.072;5.402;2022-11-15T00:05:00;31.73;;;18.52;;
54953;SDS011;40855;51.072;5.402;2022-11-15T00:07:26;27.67;;;16.50;;
54953;SDS011;40855;51.072;5.402;2022-11-15T00:09:52;26.50;;;17.05;;
54953;SDS011;40855;51.072;5.402;2022-11-15T00:12:17;27.00;;;16.17;;
54953;SDS011;40855;51.072;5.402;2022-11-15T00:14:43;37.30;;;18.45;;
54953;SDS011;40855;51.072;5.402;2022-11-15T00:17:08;36.55;;;16.88;;
54953;SDS011;40855;51.072;5.402;2022-11-15T00:19:34;31.70;;;16.83;;
54953;SDS011;40855;51.072;5.402;2022-11-15T00:22:00;32.67;;;15.77;;
54953;SDS011;40855;51.072;5.402;2022-11-15T00:24:25;31.00;;;15.75;;
54953;SDS011;40855;51.072;5.402;2022-11-15T00:26:51;29.02;;;15.93;;
54953;SDS011;40855;51.072;5.402;2022-11-15T00:29:17;35.25;;;17.42;;
54953;SDS011;40855;51.072;5.402;2022-11-15T00:31:43;23.90;;;14.25;;
54953;SDS011;40855;51.072;5.402;2022-11-15T00:34:09;29.00;;;15.73;;
54953;SDS011;40855;51.072;5.402;2022-11-15T00:36:35;31.45;;;15.13;;
54953;SDS011;40855;51.072;5.402;2022-11-15T00:39:03;25.73;;;15.85;;
54953;SDS011;40855;51.072;5.402;2022-11-15T00:41:30;29.42;;;15.57;;
54953;SDS011;40855;51.072;5.402;2022-11-15T00:43:56;24.63;;;15.70;;
54953;SDS011;40855;51.072;5.402;2022-11-15T00:46:21;38.35;;;17.25;;
54953;SDS011;40855;51.072;5.402;2022-11-15T00:48:47;30.27;;;16.02;;
54953;SDS011;40855;51.072;5.402;2022-11-15T00:51:13;27.25;;;14.90;;
54953;SDS011;40855;51.072;5.402;2022-11-15T00:53:38;30.35;;;16.00;;
54953;SDS011;40855;51.072;5.402;2022-11-15T00:56:04;34.25;;;17.30;;
54953;SDS011;40855;51.072;5.402;2022-11-15T00:58:30;28.60;;;15.75;;
54953;SDS011;40855;51.072;5.402;2022-11-15T01:00:55;33.83;;;17.33;;
54953;SDS011;40855;51.072;5.402;2022-11-15T01:03:21;26.95;;;15.23;;
54953;SDS011;40855;51.072;5.402;2022-11-15T01:05:47;31.13;;;16.95;;
54953;SDS011;40855;51.072;5.402;2022-11-15T01:08:13;27.15;;;15.10;;
54953;SDS011;40855;51.072;5.402;2022-11-15T01:10:40;34.70;;;17.50;;
54953;SDS011;40855;51.072;5.402;2022-11-15T01:13:07;32.55;;;16.95;;
54953;SDS011;40855;51.072;5.402;2022-11-15T01:15:33;32.42;;;16.70;;
54953;SDS011;40855;51.072;5.402;2022-11-15T01:17:58;29.58;;;16.40;;
54953;SDS011;40855;51.072;5.402;2022-11-15T01:20:24;25.00;;;15.23;;
54953;SDS011;40855;51.072;5.402;2022-11-15T01:22:50;24.45;;;15.57;;
54953;SDS011;40855;51.072;5.402;2022-11-15T01:25:15;28.85;;;16.52;;
54953;SDS011;40855;51.072;5.402;2022-11-15T01:27:41;27.83;;;14.65;;
54953;SDS011;40855;51.072;5.402;2022-11-15T01:30:07;27.40;;;16.23;;
54953;SDS011;40855;51.072;5.402;2022-11-15T01:32:33;27.38;;;14.80;;
54953;SDS011;40855;51.072;5.402;2022-11-15T01:34:58;27.05;;;14.75;;
54953;SDS011;40855;51.072;5.402;2022-11-15T01:37:24;28.15;;;14.40;;
54953;SDS011;40855;51.072;5.402;2022-11-15T01:39:50;28.45;;;15.60;;
54953;SDS011;40855;51.072;5.402;2022-11-15T01:42:15;28.17;;;16.52;;
54953;SDS011;40855;51.072;5.402;2022-11-15T01:44:44;23.60;;;15.45;;
54953;SDS011;40855;51.072;5.402;2022-11-15T01:47:15;27.88;;;14.75;;
54953;SDS011;40855;51.072;5.402;2022-11-15T01:50:05;24.50;;;15.70;;
54953;SDS011;40855;51.072;5.402;2022-11-15T01:52:35;24.77;;;15.48;;
54953;SDS011;40855;51.072;5.402;2022-11-15T01:57:28;28.33;;;16.23;;
54953;SDS011;40855;51.072;5.402;2022-11-15T01:59:54;27.77;;;15.63;;
54953;SDS011;40855;51.072;5.402;2022-11-15T02:02:21;26.25;;;15.60;;
54953;SDS011;40855;51.072;5.402;2022-11-15T02:04:47;26.30;;;15.48;;
54953;SDS011;40855;51.072;5.402;2022-11-15T02:07:14;25.10;;;15.07;;
54953;SDS011;40855;51.072;5.402;2022-11-15T02:09:43;31.50;;;15.98;;
54953;SDS011;40855;51.072;5.402;2022-11-15T02:12:09;27.88;;;16.08;;
54953;SDS011;40855;51.072;5.402;2022-11-15T02:14:38;22.77;;;13.98;;
54953;SDS011;40855;51.072;5.402;2022-11-15T02:29:06;29.00;;;16.02;;
54953;SDS011;40855;51.072;5.402;2022-11-15T02:31:50;27.63;;;16.45;;
54953;SDS011;40855;51.072;5.402;2022-11-15T02:42:44;29.75;;;15.32;;
54953;SDS011;40855;51.072;5.402;2022-11-15T02:45:36;29.02;;;14.77;;
54953;SDS011;40855;51.072;5.402;2022-11-15T02:48:09;24.25;;;14.38;;
54953;SDS011;40855;51.072;5.402;2022-11-15T02:50:37;22.02;;;13.60;;
54953;SDS011;40855;51.072;5.402;2022-11-15T02:53:03;28.17;;;15.18;;
54953;SDS011;40855;51.072;5.402;2022-11-15T02:55:29;23.80;;;15.45;;
54953;SDS011;40855;51.072;5.402;2022-11-15T03:00:44;27.00;;;16.25;;
54953;SDS011;40855;51.072;5.402;2022-11-15T03:03:23;28.42;;;16.35;;
54953;SDS011;40855;51.072;5.402;2022-11-15T03:06:02;26.38;;;16.35;;
54953;SDS011;40855;51.072;5.402;2022-11-15T03:08:39;28.35;;;15.55;;
54953;SDS011;40855;51.072;5.402;2022-11-15T03:18:43;32.17;;;16.75;;
54953;SDS011;40855;51.072;5.402;2022-11-15T03:21:15;33.15;;;16.65;;
54953;SDS011;40855;51.072;5.402;2022-11-15T03:23:43;30.38;;;16.45;;
54953;SDS011;40855;51.072;5.402;2022-11-15T03:26:11;35.22;;;18.63;;
54953;SDS011;40855;51.072;5.402;2022-11-15T03:28:42;30.73;;;17.83;;
54953;SDS011;40855;51.072;5.402;2022-11-15T03:31:20;32.28;;;17.42;;
54953;SDS011;40855;51.072;5.402;2022-11-15T03:34:10;44.20;;;18.60;;
54953;SDS011;40855;51.072;5.402;2022-11-15T03:36:41;35.78;;;18.38;;
54953;SDS011;40855;51.072;5.402;2022-11-15T03:39:09;36.90;;;18.45;;
54953;SDS011;40855;51.072;5.402;2022-11-15T03:42:23;32.42;;;18.30;;
54953;SDS011;40855;51.072;5.402;2022-11-15T03:44:46;40.75;;;19.35;;
54953;SDS011;40855;51.072;5.402;2022-11-15T03:47:29;35.97;;;18.77;;
54953;SDS011;40855;51.072;5.402;2022-11-15T03:50:00;40.42;;;19.05;;
54953;SDS011;40855;51.072;5.402;2022-11-15T03:52:31;42.63;;;20.10;;
54953;SDS011;40855;51.072;5.402;2022-11-15T03:54:59;38.75;;;19.85;;
54953;SDS011;40855;51.072;5.402;2022-11-15T03:57:27;45.15;;;19.83;;
54953;SDS011;40855;51.072;5.402;2022-11-15T03:59:54;42.97;;;19.83;;
54953;SDS011;40855;51.072;5.402;2022-11-15T04:02:19;39.63;;;19.17;;
54953;SDS011;40855;51.072;5.402;2022-11-15T04:04:45;39.83;;;19.40;;
54953;SDS011;40855;51.072;5.402;2022-11-15T04:07:11;46.28;;;20.35;;
54953;SDS011;40855;51.072;5.402;2022-11-15T04:09:37;46.05;;;21.23;;
54953;SDS011;40855;51.072;5.402;2022-11-15T04:14:55;43.30;;;18.45;;
54953;SDS011;40855;51.072;5.402;2022-11-15T04:17:53;38.40;;;17.80;;
54953;SDS011;40855;51.072;5.402;2022-11-15T04:20:21;50.88;;;19.77;;
54953;SDS011;40855;51.072;5.402;2022-11-15T04:23:13;46.10;;;20.52;;
54953;SDS011;40855;51.072;5.402;2022-11-15T04:26:00;41.88;;;20.02;;
54953;SDS011;40855;51.072;5.402;2022-11-15T04:28:28;51.13;;;20.92;;
54953;SDS011;40855;51.072;5.402;2022-11-15T04:30:54;48.20;;;21.02;;
54953;SDS011;40855;51.072;5.402;2022-11-15T04:33:19;48.70;;;21.13;;
54953;SDS011;40855;51.072;5.402;2022-11-15T04:35:46;55.28;;;21.27;;
54953;SDS011;40855;51.072;5.402;2022-11-15T04:38:31;50.15;;;20.13;;
54953;SDS011;40855;51.072;5.402;2022-11-15T04:40:57;46.47;;;19.95;;
54953;SDS011;40855;51.072;5.402;2022-11-15T04:43:23;41.78;;;18.83;;
54953;SDS011;40855;51.072;5.402;2022-11-15T04:45:49;39.40;;;18.25;;
54953;SDS011;40855;51.072;5.402;2022-11-15T04:48:15;38.17;;;17.08;;
54953;SDS011;40855;51.072;5.402;2022-11-15T04:50:40;46.17;;;19.70;;
54953;SDS011;40855;51.072;5.402;2022-11-15T04:53:06;53.00;;;20.98;;
54953;SDS011;40855;51.072;5.402;2022-11-15T04:55:32;55.70;;;22.77;;
54953;SDS011;40855;51.072;5.402;2022-11-15T04:58:00;54.20;;;21.77;;
54953;SDS011;40855;51.072;5.402;2022-11-15T05:00:27;58.20;;;22.55;;
54953;SDS011;40855;51.072;5.402;2022-11-15T05:02:54;54.72;;;21.50;;
54953;SDS011;40855;51.072;5.402;2022-11-15T05:05:38;46.80;;;19.75;;
54953;SDS011;40855;51.072;5.402;2022-11-15T05:08:04;37.40;;;18.65;;
54953;SDS011;40855;51.072;5.402;2022-11-15T05:10:30;42.67;;;20.17;;
54953;SDS011;40855;51.072;5.402;2022-11-15T05:12:55;43.85;;;19.02;;
54953;SDS011;40855;51.072;5.402;2022-11-15T05:15:21;43.67;;;19.65;;
54953;SDS011;40855;51.072;5.402;2022-11-15T05:17:47;39.40;;;17.05;;
54953;SDS011;40855;51.072;5.402;2022-11-15T05:20:12;27.00;;;15.55;;
54953;SDS011;40855;51.072;5.402;2022-11-15T05:22:38;26.67;;;13.93;;
54953;SDS011;40855;51.072;5.402;2022-11-15T05:25:04;23.77;;;12.32;;
54953;SDS011;40855;51.072;5.402;2022-11-15T05:27:30;17.85;;;11.27;;
54953;SDS011;40855;51.072;5.402;2022-11-15T05:29:57;22.27;;;10.18;;
54953;SDS011;40855;51.072;5.402;2022-11-15T05:32:22;22.02;;;9.48;;
54953;SDS011;40855;51.072;5.402;2022-11-15T05:34:49;17.13;;;9.50;;
54953;SDS011;40855;51.072;5.402;2022-11-15T05:37:15;17.65;;;9.05;;
54953;SDS011;40855;51.072;5.402;2022-11-15T05:39:41;15.05;;;8.88;;
54953;SDS011;40855;51.072;5.402;2022-11-15T05:44:37;14.57;;;8.38;;
54953;SDS011;40855;51.072;5.402;2022-11-15T05:47:05;9.35;;;7.50;;
54953;SDS011;40855;51.072;5.402;2022-11-15T05:49:35;16.67;;;8.18;;
54953;SDS011;40855;51.072;5.402;2022-11-15T05:52:04;16.60;;;7.78;;
54953;SDS011;40855;51.072;5.402;2022-11-15T05:54:32;13.52;;;6.55;;
54953;SDS011;40855;51.072;5.402;2022-11-15T05:56:59;12.98;;;6.88;;
54953;SDS011;40855;51.072;5.402;2022-11-15T05:59:25;17.40;;;7.65;;
54953;SDS011;40855;51.072;5.402;2022-11-15T06:01:52;12.07;;;7.20;;
54953;SDS011;40855;51.072;5.402;2022-11-15T06:04:18;15.27;;;6.57;;
54953;SDS011;40855;51.072;5.402;2022-11-15T06:06:44;10.75;;;6.57;;
54953;SDS011;40855;51.072;5.402;2022-11-15T06:09:09;13.88;;;6.97;;
54953;SDS011;40855;51.072;5.402;2022-11-15T06:11:35;17.05;;;7.18;;
54953;SDS011;40855;51.072;5.402;2022-11-15T06:14:01;18.50;;;7.45;;
54953;SDS011;40855;51.072;5.402;2022-11-15T06:16:26;13.10;;;8.10;;
54953;SDS011;40855;51.072;5.402;2022-11-15T06:18:52;16.70;;;8.18;;
54953;SDS011;40855;51.072;5.402;2022-11-15T06:21:17;23.33;;;9.52;;
54953;SDS011;40855;51.072;5.402;2022-11-15T06:23:43;16.75;;;8.10;;
54953;SDS011;40855;51.072;5.402;2022-11-15T06:26:09;16.60;;;9.00;;
54953;SDS011;40855;51.072;5.402;2022-11-15T06:28:34;22.05;;;8.13;;
54953;SDS011;40855;51.072;5.402;2022-11-15T06:31:08;26.02;;;9.05;;
54953;SDS011;40855;51.072;5.402;2022-11-15T06:33:36;19.88;;;7.90;;
54953;SDS011;40855;51.072;5.402;2022-11-15T06:36:04;18.23;;;8.77;;
54953;SDS011;40855;51.072;5.402;2022-11-15T06:38:32;17.80;;;9.23;;
54953;SDS011;40855;51.072;5.402;2022-11-15T06:41:01;18.85;;;8.73;;
54953;SDS011;40855;51.072;5.402;2022-11-15T06:43:31;16.08;;;8.90;;
54953;SDS011;40855;51.072;5.402;2022-11-15T06:45:58;18.52;;;8.80;;
54953;SDS011;40855;51.072;5.402;2022-11-15T06:48:24;14.10;;;9.20;;
54953;SDS011;40855;51.072;5.402;2022-11-15T06:50:51;15.52;;;9.57;;
54953;SDS011;40855;51.072;5.402;2022-11-15T06:53:21;21.17;;;9.55;;
54953;SDS011;40855;51.072;5.402;2022-11-15T06:55:47;18.52;;;9.05;;
54953;SDS011;40855;51.072;5.402;2022-11-15T06:58:13;14.88;;;9.18;;
54953;SDS011;40855;51.072;5.402;2022-11-15T07:00:39;20.48;;;9.63;;
54953;SDS011;40855;51.072;5.402;2022-11-15T07:03:05;19.52;;;8.48;;
54953;SDS011;40855;51.072;5.402;2022-11-15T07:05:30;17.95;;;9.38;;
54953;SDS011;40855;51.072;5.402;2022-11-15T07:07:56;19.77;;;8.55;;
54953;SDS011;40855;51.072;5.402;2022-11-15T07:10:23;16.88;;;7.65;;
54953;SDS011;40855;51.072;5.402;2022-11-15T07:12:53;18.38;;;8.02;;
54953;SDS011;40855;51.072;5.402;2022-11-15T07:15:19;15.73;;;7.95;;
54953;SDS011;40855;51.072;5.402;2022-11-15T07:17:46;28.10;;;8.00;;
54953;SDS011;40855;51.072;5.402;2022-11-15T07:20:12;13.45;;;7.68;;
54953;SDS011;40855;51.072;5.402;2022-11-15T07:22:39;16.65;;;7.32;;
54953;SDS011;40855;51.072;5.402;2022-11-15T07:25:05;15.95;;;7.03;;
54953;SDS011;40855;51.072;5.402;2022-11-15T07:27:32;9.98;;;6.70;;
54953;SDS011;40855;51.072;5.402;2022-11-15T07:29:58;12.95;;;6.75;;
54953;SDS011;40855;51.072;5.402;2022-11-15T07:32:23;13.05;;;6.05;;
54953;SDS011;40855;51.072;5.402;2022-11-15T07:34:49;11.98;;;6.10;;
54953;SDS011;40855;51.072;5.402;2022-11-15T07:37:14;9.10;;;6.22;;
54953;SDS011;40855;51.072;5.402;2022-11-15T07:39:41;14.73;;;5.78;;
54953;SDS011;40855;51.072;5.402;2022-11-15T07:42:07;14.10;;;6.78;;
54953;SDS011;40855;51.072;5.402;2022-11-15T07:44:51;9.20;;;5.47;;
54953;SDS011;40855;51.072;5.402;2022-11-15T07:47:17;9.98;;;6.10;;
54953;SDS011;40855;51.072;5.402;2022-11-15T07:49:43;14.35;;;5.85;;
54953;SDS011;40855;51.072;5.402;2022-11-15T07:52:11;7.63;;;5.75;;
54953;SDS011;40855;51.072;5.402;2022-11-15T07:54:37;9.80;;;5.00;;
54953;SDS011;40855;51.072;5.402;2022-11-15T07:57:03;6.80;;;5.72;;
54953;SDS011;40855;51.072;5.402;2022-11-15T07:59:29;10.48;;;5.32;;
54953;SDS011;40855;51.072;5.402;2022-11-15T08:01:54;10.13;;;5.68;;
54953;SDS011;40855;51.072;5.402;2022-11-15T08:04:20;8.43;;;6.20;;
54953;SDS011;40855;51.072;5.402;2022-11-15T08:06:46;10.98;;;5.10;;
54953;SDS011;40855;51.072;5.402;2022-11-15T08:09:11;9.70;;;5.53;;
54953;SDS011;40855;51.072;5.402;2022-11-15T08:11:37;10.93;;;5.53;;
54953;SDS011;40855;51.072;5.402;2022-11-15T08:14:02;9.50;;;5.47;;
54953;SDS011;40855;51.072;5.402;2022-11-15T08:16:28;7.00;;;5.35;;
54953;SDS011;40855;51.072;5.402;2022-11-15T08:18:54;11.77;;;5.38;;
54953;SDS011;40855;51.072;5.402;2022-11-15T08:21:20;8.82;;;5.38;;
54953;SDS011;40855;51.072;5.402;2022-11-15T08:23:46;7.63;;;5.10;;
54953;SDS011;40855;51.072;5.402;2022-11-15T08:26:12;9.73;;;4.30;;
54953;SDS011;40855;51.072;5.402;2022-11-15T08:28:38;9.68;;;3.90;;
54953;SDS011;40855;51.072;5.402;2022-11-15T08:31:04;6.78;;;3.47;;
54953;SDS011;40855;51.072;5.402;2022-11-15T08:33:30;9.38;;;3.45;;
54953;SDS011;40855;51.072;5.402;2022-11-15T08:35:58;7.93;;;3.42;;
54953;SDS011;40855;51.072;5.402;2022-11-15T08:38:24;6.78;;;3.20;;
54953;SDS011;40855;51.072;5.402;2022-11-15T08:40:54;8.18;;;3.15;;
54953;SDS011;40855;51.072;5.402;2022-11-15T08:43:27;12.02;;;3.50;;
54953;SDS011;40855;51.072;5.402;2022-11-15T08:45:55;6.78;;;3.13;;
54953;SDS011;40855;51.072;5.402;2022-11-15T08:48:22;4.72;;;2.80;;
54953;SDS011;40855;51.072;5.402;2022-11-15T08:50:47;7.72;;;2.45;;
54953;SDS011;40855;51.072;5.402;2022-11-15T08:53:13;10.27;;;3.00;;
54953;SDS011;40855;51.072;5.402;2022-11-15T08:55:39;5.70;;;2.38;;
54953;SDS011;40855;51.072;5.402;2022-11-15T08:58:05;7.38;;;2.00;;
54953;SDS011;40855;51.072;5.402;2022-11-15T09:00:31;2.47;;;1.60;;
54953;SDS011;40855;51.072;5.402;2022-11-15T09:02:57;4.03;;;1.92;;
54953;SDS011;40855;51.072;5.402;2022-11-15T09:05:24;10.10;;;2.00;;
54953;SDS011;40855;51.072;5.402;2022-11-15T09:07:53;8.25;;;2.17;;
54953;SDS011;40855;51.072;5.402;2022-11-15T09:10:19;9.48;;;1.90;;
54953;SDS011;40855;51.072;5.402;2022-11-15T09:12:46;3.42;;;1.60;;
54953;SDS011;40855;51.072;5.402;2022-11-15T09:15:13;8.27;;;1.60;;
54953;SDS011;40855;51.072;5.402;2022-11-15T09:17:40;10.27;;;1.52;;
54953;SDS011;40855;51.072;5.402;2022-11-15T09:20:06;5.45;;;1.67;;
54953;SDS011;40855;51.072;5.402;2022-11-15T09:22:32;3.08;;;1.33;;
54953;SDS011;40855;51.072;5.402;2022-11-15T09:24:57;8.75;;;1.95;;
54953;SDS011;40855;51.072;5.402;2022-11-15T09:27:27;4.57;;;1.80;;
54953;SDS011;40855;51.072;5.402;2022-11-15T09:29:56;4.40;;;1.75;;
54953;SDS011;40855;51.072;5.402;2022-11-15T09:32:21;6.75;;;1.90;;
54953;SDS011;40855;51.072;5.402;2022-11-15T09:34:50;4.03;;;1.58;;
54953;SDS011;40855;51.072;5.402;2022-11-15T09:37:16;6.85;;;1.63;;
54953;SDS011;40855;51.072;5.402;2022-11-15T09:39:42;6.78;;;1.60;;
54953;SDS011;40855;51.072;5.402;2022-11-15T09:42:17;10.85;;;2.10;;
54953;SDS011;40855;51.072;5.402;2022-11-15T09:45:20;2.92;;;1.48;;
54953;SDS011;40855;51.072;5.402;2022-11-15T09:50:43;3.25;;;1.30;;
54953;SDS011;40855;51.072;5.402;2022-11-15T09:53:14;5.15;;;1.20;;
54953;SDS011;40855;51.072;5.402;2022-11-15T09:56:02;6.05;;;1.30;;
54953;SDS011;40855;51.072;5.402;2022-11-15T09:58:39;7.28;;;1.38;;
54953;SDS011;40855;51.072;5.402;2022-11-15T10:01:41;5.95;;;1.30;;
54953;SDS011;40855;51.072;5.402;2022-11-15T10:04:13;4.37;;;1.23;;
54953;SDS011;40855;51.072;5.402;2022-11-15T10:06:41;8.68;;;1.52;;
54953;SDS011;40855;51.072;5.402;2022-11-15T10:11:44;6.45;;;1.20;;
54953;SDS011;40855;51.072;5.402;2022-11-15T10:14:20;3.28;;;1.40;;
54953;SDS011;40855;51.072;5.402;2022-11-15T10:17:09;4.85;;;1.48;;
54953;SDS011;40855;51.072;5.402;2022-11-15T10:25:17;4.28;;;1.13;;
54953;SDS011;40855;51.072;5.402;2022-11-15T10:30:41;7.07;;;1.05;;
54953;SDS011;40855;51.072;5.402;2022-11-15T10:33:14;5.82;;;1.27;;
54953;SDS011;40855;51.072;5.402;2022-11-15T10:36:18;2.10;;;0.73;;
54953;SDS011;40855;51.072;5.402;2022-11-15T10:41:14;2.47;;;0.80;;
54953;SDS011;40855;51.072;5.402;2022-11-15T10:43:40;5.20;;;1.02;;
54953;SDS011;40855;51.072;5.402;2022-11-15T10:46:22;5.70;;;1.30;;
54953;SDS011;40855;51.072;5.402;2022-11-15T10:48:49;2.25;;;0.98;;
54953;SDS011;40855;51.072;5.402;2022-11-15T10:51:25;1.95;;;0.63;;
54953;SDS011;40855;51.072;5.402;2022-11-15T10:53:54;2.42;;;0.63;;
54953;SDS011;40855;51.072;5.402;2022-11-15T10:56:22;5.95;;;0.95;;
54953;SDS011;40855;51.072;5.402;2022-11-15T10:58:53;3.63;;;0.88;;
54953;SDS011;40855;51.072;5.402;2022-11-15T11:01:27;7.55;;;0.93;;
54953;SDS011;40855;51.072;5.402;2022-11-15T11:06:29;5.95;;;1.25;;
54953;SDS011;40855;51.072;5.402;2022-11-15T11:09:01;4.60;;;1.23;;
54953;SDS011;40855;51.072;5.402;2022-11-15T11:11:51;5.00;;;0.88;;
54953;SDS011;40855;51.072;5.402;2022-11-15T11:14:28;8.75;;;0.90;;
54953;SDS011;40855;51.072;5.402;2022-11-15T11:17:06;3.38;;;0.77;;
54953;SDS011;40855;51.072;5.402;2022-11-15T11:25:01;2.83;;;0.90;;
54953;SDS011;40855;51.072;5.402;2022-11-15T11:27:59;2.13;;;0.50;;
54953;SDS011;40855;51.072;5.402;2022-11-15T11:35:55;5.18;;;0.80;;
54953;SDS011;40855;51.072;5.402;2022-11-15T11:46:37;2.95;;;0.80;;
54953;SDS011;40855;51.072;5.402;2022-11-15T11:49:16;10.35;;;0.95;;
54953;SDS011;40855;51.072;5.402;2022-11-15T11:57:03;2.88;;;0.90;;
54953;SDS011;40855;51.072;5.402;2022-11-15T11:59:46;2.65;;;0.65;;
54953;SDS011;40855;51.072;5.402;2022-11-15T12:02:37;3.63;;;0.75;;
54953;SDS011;40855;51.072;5.402;2022-11-15T12:05:21;4.50;;;0.80;;
54953;SDS011;40855;51.072;5.402;2022-11-15T12:07:54;4.00;;;0.98;;
54953;SDS011;40855;51.072;5.402;2022-11-15T12:10:28;5.60;;;1.00;;
54953;SDS011;40855;51.072;5.402;2022-11-15T12:13:02;7.88;;;0.70;;
54953;SDS011;40855;51.072;5.402;2022-11-15T12:15:35;5.47;;;0.77;;
54953;SDS011;40855;51.072;5.402;2022-11-15T12:18:07;4.93;;;0.73;;
54953;SDS011;40855;51.072;5.402;2022-11-15T12:20:38;4.47;;;0.82;;
54953;SDS011;40855;51.072;5.402;2022-11-15T12:25:52;4.70;;;0.65;;
54953;SDS011;40855;51.072;5.402;2022-11-15T12:33:32;4.30;;;0.90;;
54953;SDS011;40855;51.072;5.402;2022-11-15T12:36:30;8.30;;;1.00;;
54953;SDS011;40855;51.072;5.402;2022-11-15T12:38:59;6.07;;;0.77;;
54953;SDS011;40855;51.072;5.402;2022-11-15T12:41:37;2.65;;;0.52;;
54953;SDS011;40855;51.072;5.402;2022-11-15T12:44:11;4.85;;;0.80;;
54953;SDS011;40855;51.072;5.402;2022-11-15T12:49:11;4.97;;;0.60;;
54953;SDS011;40855;51.072;5.402;2022-11-15T13:02:18;8.88;;;1.02;;
54953;SDS011;40855;51.072;5.402;2022-11-15T13:04:46;4.85;;;0.80;;
54953;SDS011;40855;51.072;5.402;2022-11-15T13:10:00;2.47;;;0.47;;
54953;SDS011;40855;51.072;5.402;2022-11-15T13:20:19;5.05;;;0.60;;
54953;SDS011;40855;51.072;5.402;2022-11-15T13:22:46;4.95;;;0.85;;
54953;SDS011;40855;51.072;5.402;2022-11-15T13:33:21;2.72;;;0.85;;
54953;SDS011;40855;51.072;5.402;2022-11-15T13:35:54;3.42;;;0.70;;
54953;SDS011;40855;51.072;5.402;2022-11-15T13:38:33;4.18;;;0.80;;
54953;SDS011;40855;51.072;5.402;2022-11-15T13:41:11;3.33;;;1.02;;
54953;SDS011;40855;51.072;5.402;2022-11-15T13:43:45;3.63;;;0.60;;
54953;SDS011;40855;51.072;5.402;2022-11-15T13:46:13;4.07;;;0.80;;
54953;SDS011;40855;51.072;5.402;2022-11-15T13:48:43;3.15;;;0.80;;
54953;SDS011;40855;51.072;5.402;2022-11-15T13:51:13;5.18;;;0.77;;
54953;SDS011;40855;51.072;5.402;2022-11-15T13:53:52;3.55;;;0.85;;
54953;SDS011;40855;51.072;5.402;2022-11-15T13:56:23;5.05;;;0.60;;
54953;SDS011;40855;51.072;5.402;2022-11-15T13:58:50;4.30;;;1.23;;
54953;SDS011;40855;51.072;5.402;2022-11-15T14:01:18;5.78;;;0.80;;
54953;SDS011;40855;51.072;5.402;2022-11-15T14:03:50;4.63;;;0.85;;
54953;SDS011;40855;51.072;5.402;2022-11-15T14:06:22;3.35;;;0.70;;
54953;SDS011;40855;51.072;5.402;2022-11-15T14:08:58;6.97;;;1.00;;
54953;SDS011;40855;51.072;5.402;2022-11-15T14:11:51;2.22;;;0.77;;
54953;SDS011;40855;51.072;5.402;2022-11-15T14:14:19;3.92;;;0.82;;
54953;SDS011;40855;51.072;5.402;2022-11-15T14:17:18;2.28;;;0.70;;
54953;SDS011;40855;51.072;5.402;2022-11-15T14:19:43;8.15;;;1.63;;
54953;SDS011;40855;51.072;5.402;2022-11-15T14:22:10;4.65;;;0.73;;
54953;SDS011;40855;51.072;5.402;2022-11-15T14:27:37;3.53;;;0.85;;
54953;SDS011;40855;51.072;5.402;2022-11-15T14:30:03;1.48;;;0.93;;
54953;SDS011;40855;51.072;5.402;2022-11-15T14:32:37;3.35;;;1.00;;
54953;SDS011;40855;51.072;5.402;2022-11-15T14:35:18;1.70;;;0.70;;
54953;SDS011;40855;51.072;5.402;2022-11-15T14:37:45;2.88;;;1.00;;
54953;SDS011;40855;51.072;5.402;2022-11-15T14:40:16;3.35;;;0.75;;
54953;SDS011;40855;51.072;5.402;2022-11-15T14:42:44;2.92;;;1.00;;
54953;SDS011;40855;51.072;5.402;2022-11-15T14:45:12;3.65;;;1.00;;
54953;SDS011;40855;51.072;5.402;2022-11-15T14:47:40;3.63;;;1.00;;
54953;SDS011;40855;51.072;5.402;2022-11-15T14:50:06;1.10;;;0.82;;
54953;SDS011;40855;51.072;5.402;2022-11-15T14:52:36;3.97;;;0.90;;
54953;SDS011;40855;51.072;5.402;2022-11-15T14:55:03;4.03;;;1.00;;
54953;SDS011;40855;51.072;5.402;2022-11-15T14:57:40;7.25;;;1.38;;
54953;SDS011;40855;51.072;5.402;2022-11-15T15:00:06;1.92;;;0.98;;
54953;SDS011;40855;51.072;5.402;2022-11-15T15:02:33;3.33;;;1.00;;
54953;SDS011;40855;51.072;5.402;2022-11-15T15:04:59;2.85;;;1.02;;
54953;SDS011;40855;51.072;5.402;2022-11-15T15:07:28;6.47;;;1.45;;
54953;SDS011;40855;51.072;5.402;2022-11-15T15:09:53;2.88;;;1.25;;
54953;SDS011;40855;51.072;5.402;2022-11-15T15:12:20;3.15;;;1.10;;
54953;SDS011;40855;51.072;5.402;2022-11-15T15:14:48;1.55;;;1.20;;
54953;SDS011;40855;51.072;5.402;2022-11-15T15:17:15;1.40;;;1.00;;
54953;SDS011;40855;51.072;5.402;2022-11-15T15:19:41;5.68;;;1.00;;
54953;SDS011;40855;51.072;5.402;2022-11-15T15:22:11;6.35;;;1.50;;
54953;SDS011;40855;51.072;5.402;2022-11-15T15:24:42;2.53;;;1.25;;
54953;SDS011;40855;51.072;5.402;2022-11-15T15:27:08;3.20;;;1.20;;
54953;SDS011;40855;51.072;5.402;2022-11-15T15:29:34;2.78;;;1.33;;
54953;SDS011;40855;51.072;5.402;2022-11-15T15:32:00;3.53;;;1.30;;
54953;SDS011;40855;51.072;5.402;2022-11-15T15:34:26;3.30;;;1.20;;
54953;SDS011;40855;51.072;5.402;2022-11-15T15:39:53;10.10;;;1.40;;
54953;SDS011;40855;51.072;5.402;2022-11-15T15:42:20;5.32;;;1.15;;
54953;SDS011;40855;51.072;5.402;2022-11-15T15:44:47;2.40;;;1.23;;
54953;SDS011;40855;51.072;5.402;2022-11-15T15:47:18;3.03;;;1.42;;
54953;SDS011;40855;51.072;5.402;2022-11-15T15:49:45;1.83;;;1.38;;
54953;SDS011;40855;51.072;5.402;2022-11-15T15:52:12;2.70;;;1.38;;
54953;SDS011;40855;51.072;5.402;2022-11-15T15:54:38;5.20;;;1.70;;
54953;SDS011;40855;51.072;5.402;2022-11-15T15:57:05;6.28;;;1.38;;
54953;SDS011;40855;51.072;5.402;2022-11-15T15:59:31;3.42;;;1.30;;
54953;SDS011;40855;51.072;5.402;2022-11-15T16:01:57;1.40;;;1.25;;
54953;SDS011;40855;51.072;5.402;2022-11-15T16:04:23;5.50;;;1.50;;
54953;SDS011;40855;51.072;5.402;2022-11-15T16:06:48;3.95;;;1.67;;
54953;SDS011;40855;51.072;5.402;2022-11-15T16:09:17;3.88;;;1.90;;
54953;SDS011;40855;51.072;5.402;2022-11-15T16:12:04;6.53;;;2.05;;
54953;SDS011;40855;51.072;5.402;2022-11-15T16:14:30;2.95;;;2.08;;
54953;SDS011;40855;51.072;5.402;2022-11-15T16:16:56;6.50;;;2.15;;
54953;SDS011;40855;51.072;5.402;2022-11-15T16:19:22;2.78;;;2.42;;
54953;SDS011;40855;51.072;5.402;2022-11-15T16:21:48;3.80;;;3.22;;
54953;SDS011;40855;51.072;5.402;2022-11-15T16:24:14;4.28;;;2.85;;
54953;SDS011;40855;51.072;5.402;2022-11-15T16:26:39;4.97;;;2.92;;
54953;SDS011;40855;51.072;5.402;2022-11-15T16:29:05;5.50;;;3.03;;
54953;SDS011;40855;51.072;5.402;2022-11-15T16:31:34;5.95;;;2.58;;
54953;SDS011;40855;51.072;5.402;2022-11-15T16:33:59;3.75;;;2.58;;
54953;SDS011;40855;51.072;5.402;2022-11-15T16:36:25;4.70;;;3.25;;
54953;SDS011;40855;51.072;5.402;2022-11-15T16:38:52;5.65;;;3.08;;
54953;SDS011;40855;51.072;5.402;2022-11-15T16:41:17;6.65;;;3.40;;
54953;SDS011;40855;51.072;5.402;2022-11-15T16:43:44;8.75;;;4.00;;
54953;SDS011;40855;51.072;5.402;2022-11-15T16:46:20;6.30;;;3.38;;
54953;SDS011;40855;51.072;5.402;2022-11-15T16:48:46;4.55;;;3.67;;
54953;SDS011;40855;51.072;5.402;2022-11-15T16:51:12;7.65;;;3.65;;
54953;SDS011;40855;51.072;5.402;2022-11-15T16:53:39;9.70;;;3.83;;
54953;SDS011;40855;51.072;5.402;2022-11-15T16:59:00;11.57;;;4.03;;